Weather at Spydeberg Airstrip

Public forecast

Using degrees Celsius for public forecast. Weather courtesy of forecast.io.

Closest aviation weather report (METAR) to Spydeberg Airstrip

Closest report is Moss Airport, Rygge, 19.9 nm (36.9 km) SSW.

2024/05/21 06:20 (retrieved 33 minutes ago)

ENRY 210620Z 10006KT 060V120 CAVOK 15/M00 Q1022 NOSIG

Closest aviation forecast (TAF) to Spydeberg Airstrip

Closest forecast is Moss Airport, Rygge, 19.9 nm (36.9 km) SSW.

2024/05/21 06:39 (retrieved 14 minutes ago)

TAF TAF ENRY 210500Z 2106/2206 10005KT CAVOK